Impacts TAF Board
For situational awareness. Not to be used for flight planning purposes.
IDs:

KAEX - Alexandria Intl, LA, US

Issued at 0520 UTC 22 Oct 2021
Updated at 0744 UTC 22 Oct 2021
Potential Impact None Slight Moderate High
Time<<22/20Z 22/21Z 22/22Z 22/23Z 23/00Z 23/01Z 23/02Z 23/03Z 23/04Z 23/05Z 23/06Z 23/07Z 23/08Z>>
Type PRVL PRVL PRVL PRVL PRVL PRVL PRVL PRVL PRVL PRVL
VIS >6 >6 >6 >6 >6 >6 >6 >6 >6 >6
CIG -- -- -- -- -- -- -- -- -- --
Cover SCT SCT SCT SCT SKC SKC SKC SKC SKC SKC
FltCat VFR VFR VFR VFR VFR VFR VFR VFR VFR VFR
WX -- -- -- -- -- -- -- -- -- --
WDir 70 70 70 70 VRB VRB VRB VRB VRB VRB
WSpd 7 7 7 7 3 3 3 3 3 3
WGst -- -- -- -- -- -- -- -- -- --
Raw TAF
KAEX 220520Z 2206/2306 VRB05KT P6SM SCT060
  FM221500 07007KT P6SM SCT250
  FM230000 VRB03KT P6SM SKC


METAR Board
Radar Display
Forecast Discussion
For situational awareness. Not to be used for flight planning purposes.